Delray Beach, FL (33448)

7:15 PM EDT on August 24, 2016 (GMT -0400)
SFWMD | | Change Station

Elev 10 ft 26.50 °N, 80.22 °W | Updated 30 minutes ago

Overcast
Overcast
85 °F
Feels Like 95 °F
N
10
Wind Variable Wind from NE
Gusts 15.0 mph

Today
High -- | Low -- °F
--% Chance of Precip.
Yesterday
High -- | Low -- °F
Precip. -- in
Pressure 30.02 in
Visibility 5.0 miles
Clouds Few 1900 ft
Scattered Clouds 3700 ft
Mostly Cloudy 7500 ft
Heat Index 95 °F
Dew Point 77 °F
Humidity 77%
Rainfall in
Snow Depth Not available.
6:57 AM 7:48 PM
Waning Gibbous, 52% visible
SPECI KPMP 242303Z 01009KT 5SM VCTS RA FEW019 SCT037 BKN075 29/26 A3002 RMK AO2 LTG DSNT SW-NW RAB2254 P0002 T02890261 $
Pressure 30.02 in
Visibility 5.0 miles
Clouds Few 1900 ft
Scattered Clouds 3700 ft
Mostly Cloudy 7500 ft
Heat Index 95 °F
Dew Point 77 °F
Humidity 77%
Rainfall in
Snow Depth Not available.
6:57 AM 7:48 PM
Waning Gibbous, 52% visible
SPECI KPMP 242303Z 01009KT 5SM VCTS RA FEW019 SCT037 BKN075 29/26 A3002 RMK AO2 LTG DSNT SW-NW RAB2254 P0002 T02890261 $
A tropical disturbance we've monitored since last week, may have a dangerous future in store for the southeast U.S. and Gulf coasts this weekend into next week. The National Weather Service has issued a flash flood watch for Puerto Rico and the U.S. Virgin Islands. Rainfall totals of 2-4 inches (locally higher) are expected through Wednesday night in those areas.

The National Hurricane Center says this system has a medium to high chance of development into a tropical depression or tropical storm over the next 2 to 5 days. A tight consensus of our guidance suggests the disturbance should continue in a general west or west-northwest trajectory the next several days.

10-Day Weather Forecast

Almanac

Astronomy

Aug. 24, 2016 Rise Set
Actual Time
Civil Twilight
Nautical Twilight
Astronomical Twilight
Moon
Length of Visible Light
Length of Day
Tomorrow will be .
, % of the Moon is Illuminated

Today's Extremes

State Highs State Lows

Community

WunderPhotos

Upload Photos

1,934,731 photos uploaded!

WunderBlog® & News

Nearby

Air Quality

  Air Quality AQ Index Pollutant
Not available.

Snow Depth

Station Depth Elevation

Earthquake Activity

City Distance Mag. Time & Date
Minimum magnitude displayed is 2.5.

Coastal Water Temperatures

Place Temperature

Stations

Nearby Weather Stations

Station Location Temp. Windchill Dew Point Humidity Wind Precip. Elev Updated Type
                   

Watches & Warnings

There are currently no watches in effect.